createdAt,value
2023-01-12T00:02:08.688Z,100856.63
2023-01-12T00:04:37.124Z,100873.50
2023-01-12T00:07:07.613Z,100866.41
2023-01-12T00:09:35.840Z,100873.50
2023-01-12T00:12:06.029Z,100877.06
2023-01-12T00:14:36.201Z,100865.53
2023-01-12T00:17:04.096Z,100861.94
2023-01-12T00:19:33.869Z,100858.38
2023-01-12T00:22:08.709Z,100857.50
2023-01-12T00:24:38.561Z,100858.41
2023-01-12T00:27:08.543Z,100856.59
2023-01-12T00:29:38.138Z,100861.94
2023-01-12T00:32:07.145Z,100860.16
2023-01-12T00:34:35.099Z,100851.28
2023-01-12T00:37:03.814Z,100848.59
2023-01-12T00:39:31.756Z,100839.72
2023-01-12T00:42:16.813Z,100842.38
2023-01-12T00:45:03.385Z,100849.50
2023-01-12T00:47:31.824Z,100838.84
2023-01-12T00:49:59.586Z,100844.16
2023-01-12T00:52:31.375Z,100844.16
2023-01-12T00:55:00.010Z,100852.16
2023-01-12T00:57:28.201Z,100846.81
2023-01-12T00:59:59.347Z,100853.03
2023-01-12T01:02:27.942Z,100853.91
2023-01-12T01:04:55.995Z,100850.38
2023-01-12T01:07:23.674Z,100849.47
2023-01-12T01:09:51.938Z,100858.38
2023-01-12T01:12:19.646Z,100849.47
2023-01-12T01:14:48.302Z,100847.69
2023-01-12T01:17:17.390Z,100840.56
2023-01-12T01:19:45.268Z,100832.59
2023-01-12T01:22:13.467Z,100842.38
2023-01-12T01:24:41.443Z,100844.16
2023-01-12T01:27:09.203Z,100840.59
2023-01-12T01:29:36.944Z,100840.59
2023-01-12T01:32:04.824Z,100843.25
2023-01-12T01:34:35.680Z,100835.25
2023-01-12T01:37:03.443Z,100821.91
2023-01-12T01:39:31.155Z,100829.03
2023-01-12T01:41:58.851Z,100821.91
2023-01-12T01:44:53.746Z,100834.34
2023-01-12T01:47:27.899Z,100818.34
2023-01-12T01:50:00.654Z,100809.47
2023-01-12T01:52:32.647Z,100820.09
2023-01-12T01:55:04.452Z,100815.66
2023-01-12T01:57:37.804Z,100813.88
2023-01-12T02:00:08.442Z,100804.97
2023-01-12T02:02:37.935Z,100794.31
2023-01-12T02:05:07.780Z,100789.84
2023-01-12T02:07:35.599Z,100786.28
2023-01-12T02:10:03.389Z,100778.28
2023-01-12T02:12:48.759Z,100783.63
2023-01-12T02:15:34.067Z,100765.84
2023-01-12T02:18:15.329Z,100775.63
2023-01-12T02:20:59.274Z,100767.63
2023-01-12T02:24:13.143Z,100759.59
2023-01-12T02:27:14.155Z,100756.97
2023-01-12T02:30:20.671Z,100756.94
2023-01-12T02:33:01.514Z,100755.13
2023-01-12T02:35:36.542Z,100755.16
2023-01-12T02:38:13.588Z,100754.28
2023-01-12T02:40:49.537Z,100748.06
2023-01-12T02:43:24.301Z,100752.47
2023-01-12T02:45:56.103Z,100746.31
2023-01-12T02:48:29.774Z,100740.94
2023-01-12T02:51:06.617Z,100740.97
2023-01-12T02:53:43.091Z,100728.50
2023-01-12T02:56:11.561Z,100704.47
2023-01-12T02:58:44.792Z,100708.91
2023-01-12T03:01:15.220Z,100702.72
2023-01-12T03:03:45.203Z,100696.47
2023-01-12T03:06:16.512Z,100700.03
2023-01-12T03:08:46.150Z,100681.38
2023-01-12T03:11:15.963Z,100694.69
2023-01-12T03:13:48.592Z,100684.00
2023-01-12T03:16:20.008Z,100680.44
2023-01-12T03:18:55.303Z,100679.63
2023-01-12T03:21:30.040Z,100683.16
2023-01-12T03:24:05.570Z,100667.19
2023-01-12T03:26:35.588Z,100672.44
2023-01-12T03:29:08.717Z,100674.22
2023-01-12T03:31:37.561Z,100672.47
2023-01-12T03:34:06.673Z,100675.09
2023-01-12T03:36:45.572Z,100658.16
2023-01-12T03:39:18.998Z,100666.22
2023-01-12T03:41:57.711Z,100661.78
2023-01-12T03:44:32.260Z,100653.78
2023-01-12T03:47:04.976Z,100648.44
2023-01-12T03:49:38.983Z,100634.16
2023-01-12T03:52:09.135Z,100644.88
2023-01-12T03:54:39.424Z,100628.88
2023-01-12T03:57:09.824Z,100631.50
2023-01-12T03:59:37.541Z,100624.44
2023-01-12T04:02:05.583Z,100633.31
2023-01-12T04:04:34.814Z,100620.81
2023-01-12T04:07:02.482Z,100636.81
2023-01-12T04:09:30.364Z,100618.13
2023-01-12T04:12:13.147Z,100617.19
2023-01-12T04:14:43.117Z,100612.69
2023-01-12T04:17:14.443Z,100605.59
2023-01-12T04:19:43.689Z,100604.75
2023-01-12T04:22:33.292Z,100602.94
2023-01-12T04:25:00.975Z,100598.50
2023-01-12T04:27:28.674Z,100596.69
2023-01-12T04:29:56.356Z,100605.63
2023-01-12T04:32:24.065Z,100588.78
2023-01-12T04:34:53.148Z,100584.34
2023-01-12T04:37:21.469Z,100578.13
2023-01-12T04:39:49.148Z,100574.56
2023-01-12T04:42:34.305Z,100568.38
2023-01-12T04:45:01.991Z,100571.94
2023-01-12T04:47:29.680Z,100545.34
2023-01-12T04:49:58.756Z,100544.47
2023-01-12T04:52:26.462Z,100534.63
2023-01-12T04:54:56.680Z,100540.84
2023-01-12T04:57:24.505Z,100527.50
2023-01-12T04:59:52.261Z,100516.84
2023-01-12T05:02:20.024Z,100520.41
2023-01-12T05:04:48.215Z,100528.47
2023-01-12T05:07:18.017Z,100523.06
2023-01-12T05:10:03.086Z,100507.06
2023-01-12T05:12:30.944Z,100501.72
2023-01-12T05:14:58.679Z,100510.59
2023-01-12T05:17:26.795Z,100499.91
2023-01-12T05:19:54.517Z,100485.72
2023-01-12T05:22:23.714Z,100476.84
2023-01-12T05:24:51.452Z,100452.00
2023-01-12T05:27:19.221Z,100463.47
2023-01-12T05:29:47.440Z,100441.19
2023-01-12T05:32:15.165Z,100431.41
2023-01-12T05:34:42.952Z,100442.94
2023-01-12T05:37:10.780Z,100427.88
2023-01-12T05:39:40.075Z,100427.94
2023-01-12T05:42:25.526Z,100414.63
2023-01-12T05:44:53.258Z,100409.31
2023-01-12T05:47:20.973Z,100420.75
2023-01-12T05:49:48.751Z,100428.75
2023-01-12T05:52:16.471Z,100428.75
2023-01-12T05:54:45.564Z,100428.75
2023-01-12T05:57:13.244Z,100420.81
2023-01-12T05:59:40.945Z,100409.31
2023-01-12T06:02:12.078Z,100401.34
2023-01-12T06:04:39.916Z,100409.28
2023-01-12T06:07:07.735Z,100386.22
2023-01-12T06:09:35.950Z,100408.41
2023-01-12T06:12:23.173Z,100399.47
2023-01-12T06:14:50.969Z,100389.78
2023-01-12T06:17:18.767Z,100364.84
2023-01-12T06:19:46.532Z,100379.03
2023-01-12T06:22:14.185Z,100391.44
2023-01-12T06:24:42.128Z,100408.38
2023-01-12T06:27:11.236Z,100408.41
2023-01-12T06:29:38.960Z,100399.53
2023-01-12T06:32:06.758Z,100379.91
2023-01-12T06:34:38.139Z,100370.13
2023-01-12T06:37:07.260Z,100365.63
2023-01-12T06:39:38.138Z,100391.41
2023-01-12T06:42:30.558Z,100404.75
2023-01-12T06:44:59.051Z,100398.53
2023-01-12T06:47:27.846Z,100388.66
2023-01-12T06:49:55.724Z,100373.66
2023-01-12T06:52:26.093Z,100371.00
2023-01-12T06:54:54.124Z,100386.03
2023-01-12T06:57:23.356Z,100385.19
2023-01-12T06:59:51.332Z,100376.38
2023-01-12T07:02:20.342Z,100372.78
2023-01-12T07:04:48.171Z,100386.03
2023-01-12T07:07:15.841Z,100378.06
2023-01-12T07:09:43.540Z,100371.00
2023-01-12T07:12:11.294Z,100371.88
2023-01-12T07:14:40.424Z,100379.88
2023-01-12T07:17:08.187Z,100386.06
2023-01-12T07:19:35.914Z,100386.16
2023-01-12T07:22:03.630Z,100372.81
2023-01-12T07:24:31.409Z,100377.22
2023-01-12T07:26:59.278Z,100373.66
2023-01-12T07:29:27.085Z,100378.09
2023-01-12T07:31:56.173Z,100381.59
2023-01-12T07:34:24.151Z,100371.81
2023-01-12T07:36:52.583Z,100382.44
2023-01-12T07:39:20.739Z,100372.59
2023-01-12T07:42:05.811Z,100381.50
2023-01-12T07:44:33.515Z,100385.97
2023-01-12T07:47:02.644Z,100376.16
2023-01-12T07:49:30.337Z,100374.41
2023-01-12T07:51:58.040Z,100381.47
2023-01-12T07:54:25.791Z,100377.88
2023-01-12T07:56:53.562Z,100376.88
2023-01-12T07:59:21.263Z,100377.78
2023-01-12T08:01:49.041Z,100376.00
2023-01-12T08:04:18.189Z,100380.47
2023-01-12T08:06:45.913Z,100377.69
2023-01-12T08:09:13.709Z,100375.09
2023-01-12T08:11:42.633Z,100368.00
2023-01-12T08:14:14.098Z,100383.06
2023-01-12T08:16:45.474Z,100393.69
2023-01-12T08:19:17.339Z,100387.47
2023-01-12T08:21:50.745Z,100385.63
2023-01-12T08:24:22.899Z,100382.91
2023-01-12T08:26:54.700Z,100371.28
2023-01-12T08:29:32.003Z,100387.28
2023-01-12T08:32:04.496Z,100387.31
2023-01-12T08:34:33.389Z,100390.81
2023-01-12T08:37:09.338Z,100396.09
2023-01-12T08:39:37.524Z,100391.66
2023-01-12T08:42:05.663Z,100397.00
2023-01-12T08:44:34.969Z,100398.78
2023-01-12T08:47:03.860Z,100387.22
2023-01-12T08:49:33.149Z,100383.59
2023-01-12T08:52:02.268Z,100398.69
2023-01-12T08:54:30.133Z,100395.16
2023-01-12T08:56:58.057Z,100387.19
2023-01-12T08:59:25.858Z,100397.78
2023-01-12T09:01:53.772Z,100402.16
2023-01-12T09:04:21.577Z,100397.75
2023-01-12T09:06:49.462Z,100401.25
2023-01-12T09:09:20.924Z,100396.00
2023-01-12T09:11:50.666Z,100409.25
2023-01-12T09:14:19.026Z,100395.88
2023-01-12T09:16:46.742Z,100410.13
2023-01-12T09:19:14.571Z,100407.47
2023-01-12T09:21:43.601Z,100409.19
2023-01-12T09:24:12.141Z,100402.91
2023-01-12T09:26:42.895Z,100410.84
2023-01-12T09:29:12.718Z,100415.31
2023-01-12T09:31:43.123Z,100430.50
2023-01-12T09:34:11.110Z,100432.34
2023-01-12T09:36:40.479Z,100417.06
2023-01-12T09:39:10.398Z,100421.41
2023-01-12T09:42:04.325Z,100429.28
2023-01-12T09:44:53.341Z,100438.22
2023-01-12T09:47:32.057Z,100436.53
2023-01-12T09:50:10.554Z,100434.66
2023-01-12T09:52:42.621Z,100439.19
2023-01-12T09:55:15.896Z,100426.66
2023-01-12T09:58:05.367Z,100448.84
2023-01-12T10:00:33.231Z,100453.25
2023-01-12T10:03:12.965Z,100444.28
2023-01-12T10:05:46.096Z,100452.38
2023-01-12T10:08:24.115Z,100452.28
2023-01-12T10:11:02.989Z,100456.72
2023-01-12T10:13:48.137Z,100440.66
2023-01-12T10:16:23.266Z,100462.88
2023-01-12T10:18:55.564Z,100466.41
2023-01-12T10:21:24.349Z,100454.75
2023-01-12T10:23:55.497Z,100465.50
2023-01-12T10:26:25.029Z,100454.88
2023-01-12T10:28:56.329Z,100459.22
2023-01-12T10:31:27.094Z,100462.72
2023-01-12T10:34:06.960Z,100458.19
2023-01-12T10:36:36.457Z,100446.69
2023-01-12T10:39:05.837Z,100458.13
2023-01-12T10:41:34.719Z,100454.44
2023-01-12T10:44:16.021Z,100453.53
2023-01-12T10:46:43.888Z,100460.66
2023-01-12T10:49:20.356Z,100465.97
2023-01-12T10:51:54.493Z,100462.41
2023-01-12T10:54:25.172Z,100469.47
2023-01-12T10:56:58.720Z,100464.06
2023-01-12T10:59:31.486Z,100473.06
2023-01-12T11:02:14.366Z,100459.59
2023-01-12T11:04:44.183Z,100461.34
2023-01-12T11:07:14.668Z,100459.59
2023-01-12T11:09:44.422Z,100460.56
2023-01-12T11:12:22.294Z,100479.31
2023-01-12T11:15:02.443Z,100458.88
2023-01-12T11:17:44.638Z,100462.38
2023-01-12T11:20:20.429Z,100461.38
2023-01-12T11:22:52.579Z,100464.09
2023-01-12T11:25:24.445Z,100482.03
2023-01-12T11:27:55.888Z,100467.75
2023-01-12T11:30:32.810Z,100462.47
2023-01-12T11:33:08.897Z,100457.78
2023-01-12T11:35:42.612Z,100462.91
2023-01-12T11:38:14.443Z,100465.59
2023-01-12T11:40:43.346Z,100457.56
2023-01-12T11:43:39.109Z,100454.03
2023-01-12T11:46:14.452Z,100466.56
2023-01-12T11:48:51.221Z,100458.53
2023-01-12T11:51:19.057Z,100458.50
2023-01-12T11:53:47.204Z,100463.81
2023-01-12T11:56:36.385Z,100459.44
2023-01-12T11:59:14.854Z,100456.81
2023-01-12T12:01:53.386Z,100444.34
2023-01-12T12:04:36.768Z,100442.44
2023-01-12T12:07:18.403Z,100454.03
2023-01-12T12:10:01.312Z,100445.19
2023-01-12T12:12:41.439Z,100434.53
2023-01-12T12:15:23.741Z,100455.97
2023-01-12T12:18:01.947Z,100448.75
2023-01-12T12:20:40.124Z,100446.16
2023-01-12T12:23:20.011Z,100443.44
2023-01-12T12:25:56.711Z,100440.91
2023-01-12T12:28:43.875Z,100445.50
2023-01-12T12:31:46.618Z,100436.63
2023-01-12T12:34:38.172Z,100439.28
2023-01-12T12:37:11.610Z,100432.97
2023-01-12T12:39:55.708Z,100433.88
2023-01-12T12:43:03.985Z,100442.84
2023-01-12T12:45:42.948Z,100419.81
2023-01-12T12:48:16.200Z,100420.56
2023-01-12T12:50:53.010Z,100426.78
2023-01-12T12:53:26.420Z,100418.75
2023-01-12T12:55:57.176Z,100402.66
2023-01-12T12:58:31.184Z,100408.81
2023-01-12T13:01:44.034Z,100407.94
2023-01-12T13:04:14.420Z,100400.66
2023-01-12T13:06:49.321Z,100406.72
2023-01-12T13:09:38.145Z,100402.09
2023-01-12T13:12:30.972Z,100395.81
2023-01-12T13:15:19.160Z,100402.94
2023-01-12T13:17:49.777Z,100402.97
2023-01-12T13:20:52.600Z,100410.03
2023-01-12T13:23:56.319Z,100403.88
2023-01-12T13:26:41.368Z,100403.88
2023-01-12T13:29:44.305Z,100398.53
2023-01-12T13:32:34.355Z,100396.78
2023-01-12T13:35:02.179Z,100391.38
2023-01-12T13:37:40.984Z,100399.34
2023-01-12T13:40:18.842Z,100404.81
2023-01-12T13:43:08.755Z,100402.22
2023-01-12T13:45:37.924Z,100401.31
2023-01-12T13:48:08.131Z,100398.59
2023-01-12T13:50:37.615Z,100403.06
2023-01-12T13:53:06.471Z,100404.13
2023-01-12T13:55:36.985Z,100406.00
2023-01-12T13:58:16.788Z,100402.44
2023-01-12T14:00:55.325Z,100410.44
2023-01-12T14:03:41.924Z,100410.47
2023-01-12T14:06:22.426Z,100394.31
2023-01-12T14:09:03.503Z,100405.88
2023-01-12T14:11:56.115Z,100406.00
2023-01-12T14:14:59.767Z,100416.59
2023-01-12T14:17:48.792Z,100412.25
2023-01-12T14:20:19.190Z,100408.72
2023-01-12T14:22:47.241Z,100400.66
2023-01-12T14:25:17.339Z,100410.50
2023-01-12T14:27:52.428Z,100401.41
2023-01-12T14:30:22.610Z,100406.97
2023-01-12T14:32:51.901Z,100401.59
2023-01-12T14:35:21.687Z,100398.94
2023-01-12T14:37:52.854Z,100404.22
2023-01-12T14:40:31.574Z,100394.53
2023-01-12T14:43:18.088Z,100390.97
2023-01-12T14:46:24.113Z,100392.75
2023-01-12T14:49:00.660Z,100387.41
2023-01-12T14:51:33.944Z,100380.25
2023-01-12T14:54:17.520Z,100382.09
2023-01-12T14:56:50.959Z,100377.69
2023-01-12T14:59:22.810Z,100377.69
2023-01-12T15:01:52.840Z,100389.25
2023-01-12T15:04:23.618Z,100382.19
2023-01-12T15:07:01.968Z,100375.09
2023-01-12T15:09:32.193Z,100375.91
2023-01-12T15:12:00.232Z,100373.25
2023-01-12T15:14:30.114Z,100367.88
2023-01-12T15:17:16.505Z,100366.13
2023-01-12T15:20:01.936Z,100367.88
2023-01-12T15:22:47.268Z,100367.03
2023-01-12T15:25:34.513Z,100360.72
2023-01-12T15:28:02.616Z,100364.28
2023-01-12T15:30:31.688Z,100358.94
2023-01-12T15:33:00.911Z,100362.59
2023-01-12T15:35:30.004Z,100359.84
2023-01-12T15:37:59.355Z,100366.06
2023-01-12T15:40:28.653Z,100372.38
2023-01-12T15:42:58.623Z,100369.72
2023-01-12T15:45:34.407Z,100360.94
2023-01-12T15:48:04.975Z,100347.50
2023-01-12T15:50:33.796Z,100361.69
2023-01-12T15:53:02.025Z,100359.00
2023-01-12T15:55:35.692Z,100358.09
2023-01-12T15:58:03.478Z,100361.69
2023-01-12T16:00:31.192Z,100357.25
2023-01-12T16:02:59.063Z,100350.16
2023-01-12T16:05:28.230Z,100355.50
2023-01-12T16:07:56.092Z,100354.56
2023-01-12T16:10:23.894Z,100354.69
2023-01-12T16:12:51.690Z,100351.06
2023-01-12T16:15:21.298Z,100343.09
2023-01-12T16:17:49.467Z,100344.94
2023-01-12T16:20:18.869Z,100338.66
2023-01-12T16:22:48.378Z,100343.03
2023-01-12T16:25:17.418Z,100334.94
2023-01-12T16:27:45.143Z,100335.88
2023-01-12T16:30:15.558Z,100345.53
2023-01-12T16:32:46.685Z,100342.06
2023-01-12T16:35:15.535Z,100334.00
2023-01-12T16:37:44.503Z,100338.47
2023-01-12T16:40:14.276Z,100336.72
2023-01-12T16:42:41.934Z,100334.03
2023-01-12T16:45:10.841Z,100332.28
2023-01-12T16:47:38.573Z,100335.91
2023-01-12T16:50:07.216Z,100334.13
2023-01-12T16:52:35.273Z,100331.47
2023-01-12T16:55:04.829Z,100327.84
2023-01-12T16:57:34.706Z,100326.88
2023-01-12T17:00:05.312Z,100328.63
2023-01-12T17:02:33.235Z,100331.38
2023-01-12T17:05:01.778Z,100326.06
2023-01-12T17:07:29.941Z,100328.69
2023-01-12T17:09:59.096Z,100322.53
2023-01-12T17:12:38.935Z,100324.41
2023-01-12T17:15:22.006Z,100327.91
2023-01-12T17:17:51.267Z,100312.78
2023-01-12T17:20:23.236Z,100318.00
2023-01-12T17:22:51.965Z,100319.03
2023-01-12T17:25:19.784Z,100315.41
2023-01-12T17:27:49.008Z,100323.38
2023-01-12T17:30:17.023Z,100332.19
2023-01-12T17:32:45.128Z,100320.69
2023-01-12T17:35:14.491Z,100319.81
2023-01-12T17:37:42.249Z,100323.38
2023-01-12T17:40:11.310Z,100330.53
2023-01-12T17:42:56.697Z,100318.06
2023-01-12T17:45:25.835Z,100313.63
2023-01-12T17:47:53.576Z,100318.94
2023-01-12T17:50:21.370Z,100316.28
2023-01-12T17:52:49.090Z,100316.34
2023-01-12T17:55:19.936Z,100303.72
2023-01-12T17:57:50.512Z,100307.34
2023-01-12T18:00:19.126Z,100313.59
2023-01-12T18:02:50.801Z,100313.53
2023-01-12T18:05:18.645Z,100307.28
2023-01-12T18:07:46.306Z,100316.28
2023-01-12T18:10:14.006Z,100316.25
2023-01-12T18:12:44.593Z,100315.38
2023-01-12T18:15:12.798Z,100313.63
2023-01-12T18:17:43.021Z,100308.22
2023-01-12T18:20:12.636Z,100309.16
2023-01-12T18:22:40.486Z,100307.34
2023-01-12T18:25:11.377Z,100308.22
2023-01-12T18:27:39.587Z,100314.47
2023-01-12T18:30:08.095Z,100313.69
2023-01-12T18:32:35.898Z,100318.19
2023-01-12T18:35:03.984Z,100317.25
2023-01-12T18:37:33.359Z,100321.75
2023-01-12T18:40:01.209Z,100312.78
2023-01-12T18:42:46.266Z,100310.09
2023-01-12T18:45:14.145Z,100307.53
2023-01-12T18:47:59.223Z,100303.94
2023-01-12T18:50:47.979Z,100309.22
2023-01-12T18:53:25.081Z,100302.09
2023-01-12T18:55:57.103Z,100305.66
2023-01-12T18:58:27.274Z,100304.84
2023-01-12T19:00:55.320Z,100294.13
2023-01-12T19:03:30.539Z,100294.03
2023-01-12T19:06:11.937Z,100291.31
2023-01-12T19:08:58.353Z,100292.28
2023-01-12T19:11:26.572Z,100287.78
2023-01-12T19:14:16.971Z,100276.22
2023-01-12T19:17:02.311Z,100279.75
2023-01-12T19:19:30.986Z,100287.81
2023-01-12T19:22:16.309Z,100293.97
2023-01-12T19:25:03.833Z,100265.41
2023-01-12T19:27:49.371Z,100286.88
2023-01-12T19:30:17.649Z,100282.31
2023-01-12T19:32:45.413Z,100277.00
2023-01-12T19:35:25.567Z,100285.09
2023-01-12T19:37:53.375Z,100283.34
2023-01-12T19:40:27.740Z,100285.09
2023-01-12T19:43:14.329Z,100278.91
2023-01-12T19:45:44.077Z,100283.38
2023-01-12T19:48:13.180Z,100277.09
2023-01-12T19:50:43.232Z,100283.22
2023-01-12T19:53:13.534Z,100285.13
2023-01-12T19:55:43.729Z,100284.25
2023-01-12T19:58:12.099Z,100286.06
2023-01-12T20:00:44.813Z,100279.88
2023-01-12T20:03:13.391Z,100275.28
2023-01-12T20:05:42.603Z,100296.59
2023-01-12T20:08:11.433Z,100303.81
2023-01-12T20:10:39.717Z,100296.72
2023-01-12T20:13:09.683Z,100295.00
2023-01-12T20:15:40.031Z,100298.59
2023-01-12T20:18:08.967Z,100290.53
2023-01-12T20:20:37.068Z,100287.81
2023-01-12T20:23:04.819Z,100285.13
2023-01-12T20:25:32.751Z,100292.25
2023-01-12T20:28:00.580Z,100289.50
2023-01-12T20:30:37.880Z,100287.72
2023-01-12T20:33:07.238Z,100292.22
2023-01-12T20:35:38.163Z,100297.56
2023-01-12T20:38:13.220Z,100302.94
2023-01-12T20:40:41.203Z,100294.97
2023-01-12T20:43:10.868Z,100285.97
2023-01-12T20:45:41.488Z,100304.66
2023-01-12T20:48:11.332Z,100308.31
2023-01-12T20:50:52.259Z,100317.09
2023-01-12T20:53:33.234Z,100301.03
2023-01-12T20:56:06.152Z,100296.59
2023-01-12T20:58:35.239Z,100292.13
2023-01-12T21:01:13.893Z,100296.59
2023-01-12T21:03:45.925Z,100292.19
2023-01-12T21:06:16.265Z,100290.41
2023-01-12T21:08:45.268Z,100296.59
2023-01-12T21:11:15.071Z,100290.31
2023-01-12T21:14:29.502Z,100290.31
2023-01-12T21:16:49.007Z,100281.53
2023-01-12T21:19:16.945Z,100285.91
2023-01-12T21:21:44.664Z,100274.25
2023-01-12T21:24:12.389Z,100280.53
2023-01-12T21:26:40.166Z,100270.63
2023-01-12T21:29:08.013Z,100267.03
2023-01-12T21:31:35.870Z,100266.16
2023-01-12T21:34:05.054Z,100262.56
2023-01-12T21:36:32.937Z,100268.81
2023-01-12T21:39:00.681Z,100272.31
2023-01-12T21:41:28.409Z,100272.38
2023-01-12T21:43:55.183Z,100275.13
2023-01-12T21:46:23.304Z,100276.88
2023-01-12T21:48:51.091Z,100277.75
2023-01-12T21:51:20.168Z,100275.09
2023-01-12T21:53:47.899Z,100273.34
2023-01-12T21:56:15.666Z,100277.72
2023-01-12T21:58:43.375Z,100275.09
2023-01-12T22:01:16.727Z,100274.94
2023-01-12T22:03:45.123Z,100266.97
2023-01-12T22:06:14.390Z,100269.63
2023-01-12T22:08:50.697Z,100258.06
2023-01-12T22:11:18.975Z,100258.97
2023-01-12T22:13:46.833Z,100258.91
2023-01-12T22:16:16.559Z,100248.22
2023-01-12T22:18:49.007Z,100243.81
2023-01-12T22:21:17.445Z,100243.75
2023-01-12T22:23:47.029Z,100237.53
2023-01-12T22:26:16.281Z,100236.69
2023-01-12T22:28:46.921Z,100234.81
2023-01-12T22:31:17.189Z,100232.16
2023-01-12T22:33:46.411Z,100233.06
2023-01-12T22:36:14.774Z,100234.84
2023-01-12T22:38:42.562Z,100241.94
2023-01-12T22:41:13.311Z,100233.03
2023-01-12T22:43:42.067Z,100223.31
2023-01-12T22:46:13.903Z,100238.41
2023-01-12T22:48:41.644Z,100242.06
2023-01-12T22:51:09.744Z,100248.19
2023-01-12T22:53:37.657Z,100246.28
2023-01-12T22:56:06.005Z,100253.50
2023-01-12T22:58:35.140Z,100246.47
2023-01-12T23:01:04.278Z,100251.81
2023-01-12T23:03:32.159Z,100252.00
2023-01-12T23:06:00.041Z,100254.69
2023-01-12T23:08:28.195Z,100242.25
2023-01-12T23:11:04.167Z,100244.06
2023-01-12T23:13:32.003Z,100249.41
2023-01-12T23:16:04.297Z,100242.38
2023-01-12T23:18:33.043Z,100261.19
2023-01-12T23:21:03.334Z,100243.44
2023-01-12T23:23:31.582Z,100250.59
2023-01-12T23:26:03.807Z,100236.44
2023-01-12T23:28:35.586Z,100232.03
2023-01-12T23:31:06.421Z,100239.16
2023-01-12T23:33:34.315Z,100246.44
2023-01-12T23:36:06.065Z,100237.59
2023-01-12T23:38:33.805Z,100226.97
2023-01-12T23:41:10.417Z,100229.63
2023-01-12T23:43:38.425Z,100223.44
2023-01-12T23:46:07.938Z,100230.59
2023-01-12T23:48:36.072Z,100233.28
2023-01-12T23:51:04.995Z,100236.88
2023-01-12T23:53:32.679Z,100244.91
2023-01-12T23:56:05.360Z,100226.16
2023-01-12T23:58:33.169Z,100220.81
